Time;durP1;ratioP1;P1;durP2;ratioP2;P2;SDS_P1;SDS_P2;PMS_P1;PMS_P2;Temp;Humidity;BMP_temperature;BMP_pressure;BME280_temperature;BME280_humidity;BME280_pressure;Samples;Min_cycle;Max_cycle;Signal;HPM_P1;HPM_P2
2022/04/23 00:00:18;;;;;;;11.05;5.40;;;;;;;9.35;90.84;100960.63;5003182;28;20030;-69
2022/04/23 00:02:43;;;;;;;16.17;6.22;;;;;;;9.45;91.34;100983.34;5030995;28;20144;-69
2022/04/23 00:05:10;;;;;;;12.50;6.03;;;;;;;9.50;91.30;100984.75;5025158;28;20052;-69
2022/04/23 00:07:35;;;;;;;12.05;5.63;;;;;;;9.47;91.68;100984.03;5030955;28;20113;-69
2022/04/23 00:10:01;;;;;;;12.02;5.57;;;;;;;9.47;91.31;100978.78;5012724;28;20562;-69
2022/04/23 00:12:26;;;;;;;9.05;4.68;;;;;;;9.42;92.06;100991.50;5030514;28;20544;-69
2022/04/23 00:14:53;;;;;;;10.68;5.32;;;;;;;9.37;92.18;100967.41;5008893;28;20037;-70
2022/04/23 00:17:19;;;;;;;8.40;5.63;;;;;;;9.37;92.43;100970.03;5014414;28;20036;-70
2022/04/23 00:19:46;;;;;;;12.02;5.53;;;;;;;9.41;91.93;100979.31;5029248;28;20501;-70
2022/04/23 00:22:13;;;;;;;10.27;6.72;;;;;;;9.41;92.58;100976.69;5029904;28;20029;-70
2022/04/23 00:24:39;;;;;;;12.25;5.88;;;;;;;9.34;93.03;100967.69;5029071;28;20497;-70
2022/04/23 00:27:06;;;;;;;8.32;5.60;;;;;;;9.40;92.02;100966.28;5018657;28;20030;-70
2022/04/23 00:29:31;;;;;;;11.88;6.15;;;;;;;9.43;92.26;100974.75;5013253;28;20126;-70
2022/04/23 00:31:56;;;;;;;10.10;5.68;;;;;;;9.47;92.91;100970.88;4998460;28;20120;-71
2022/04/23 00:34:22;;;;;;;14.20;5.72;;;;;;;9.50;92.23;100979.47;5028463;28;20033;-69
2022/04/23 00:36:47;;;;;;;13.43;6.30;;;;;;;9.48;92.33;100972.53;5026045;28;20116;-70
2022/04/23 00:39:13;;;;;;;12.32;6.25;;;;;;;9.42;93.08;100966.97;5030400;28;20390;-70
2022/04/23 00:41:45;;;;;;;8.73;4.50;;;;;;;9.27;92.71;100962.13;5029531;28;20065;-70
2022/04/23 00:44:11;;;;;;;8.60;6.03;;;;;;;9.26;93.18;100959.63;5022096;28;20382;-69
2022/04/23 00:46:37;;;;;;;10.60;6.63;;;;;;;9.35;92.92;100976.41;5010954;28;20041;-69
2022/04/23 00:49:03;;;;;;;8.85;5.90;;;;;;;9.22;92.85;100972.25;5023936;28;20044;-69
2022/04/23 00:51:30;;;;;;;16.15;7.32;;;;;;;9.17;93.25;100966.56;5030329;28;20040;-69
2022/04/23 00:53:58;;;;;;;12.45;6.25;;;;;;;9.24;92.97;100974.75;5027092;28;20049;-69
2022/04/23 00:56:24;;;;;;;9.77;5.85;;;;;;;9.17;93.13;100978.91;5027803;28;20120;-69
2022/04/23 00:58:50;;;;;;;10.65;5.70;;;;;;;9.08;93.34;100956.88;5013080;28;20028;-69
2022/04/23 01:01:16;;;;;;;12.02;6.20;;;;;;;8.97;93.93;100949.94;5026725;28;20037;-69
2022/04/23 01:03:45;;;;;;;13.48;6.18;;;;;;;9.00;93.74;100967.25;5025071;28;20490;-69
2022/04/23 01:06:11;;;;;;;13.50;7.63;;;;;;;8.95;93.91;100970.28;5025599;28;20104;-69
2022/04/23 01:08:37;;;;;;;10.40;6.18;;;;;;;9.04;94.29;100977.38;5012456;28;20116;-69
2022/04/23 01:11:02;;;;;;;14.45;7.18;;;;;;;9.03;94.06;100973.06;5026459;28;20040;-69
2022/04/23 01:13:28;;;;;;;10.60;6.93;;;;;;;9.02;94.50;100976.66;5028811;28;20033;-69
2022/04/23 01:16:02;;;;;;;14.63;6.93;;;;;;;8.93;95.03;100966.97;5026671;28;20049;-69
2022/04/23 01:18:28;;;;;;;10.90;6.30;;;;;;;9.02;94.66;100981.09;5028284;28;20030;-69
2022/04/23 01:20:55;;;;;;;13.77;6.93;;;;;;;9.10;94.55;100977.78;5027969;28;20032;-69
2022/04/23 01:23:21;;;;;;;12.02;6.97;;;;;;;9.14;93.60;100979.16;5027901;28;20079;-69
2022/04/23 01:25:46;;;;;;;9.20;7.43;;;;;;;9.16;94.23;100978.06;5027072;28;20045;-70
2022/04/23 01:28:14;;;;;;;10.73;6.95;;;;;;;9.15;94.21;100986.13;5026078;28;20036;-70
2022/04/23 01:30:39;;;;;;;12.93;7.47;;;;;;;9.05;93.61;100976.38;5027819;28;20091;-70
2022/04/23 01:33:04;;;;;;;9.38;6.80;;;;;;;8.96;93.54;100960.59;5013347;28;20034;-70
2022/04/23 01:35:31;;;;;;;14.43;7.35;;;;;;;9.10;93.81;100983.03;5011121;28;20111;-70
2022/04/23 01:37:56;;;;;;;11.88;7.03;;;;;;;9.09;93.48;100971.69;5025306;28;20025;-69
2022/04/23 01:40:22;;;;;;;10.98;6.93;;;;;;;8.95;93.75;100970.28;5013455;28;20038;-69
2022/04/23 01:42:47;;;;;;;12.68;7.93;;;;;;;8.99;93.88;100986.63;5021054;28;20087;-69
2022/04/23 01:45:13;;;;;;;13.23;7.50;;;;;;;8.95;94.45;100985.22;5022852;28;20128;-69
2022/04/23 01:47:38;;;;;;;9.50;6.47;;;;;;;8.93;95.02;100990.66;5026829;28;20022;-69
2022/04/23 01:50:04;;;;;;;10.98;6.90;;;;;;;8.93;95.54;100992.44;5027294;28;20034;-70
2022/04/23 01:52:29;;;;;;;13.05;9.30;;;;;;;8.75;95.56;100958.06;5011175;28;20030;-70
2022/04/23 01:54:54;;;;;;;9.35;7.00;;;;;;;8.89;95.41;100986.63;5011142;28;20529;-70
2022/04/23 01:57:20;;;;;;;10.90;6.57;;;;;;;8.88;95.42;100989.38;5013137;28;20490;-70
2022/04/23 01:59:45;;;;;;;9.50;6.65;;;;;;;8.83;95.39;100976.63;5028084;28;20047;-70
2022/04/23 02:02:11;;;;;;;10.80;6.80;;;;;;;8.81;95.07;100975.94;5023970;28;20026;-70
2022/04/23 02:04:36;;;;;;;16.35;7.78;;;;;;;8.83;95.61;100982.72;5024447;28;20187;-70
2022/04/23 02:07:01;;;;;;;9.50;6.10;;;;;;;8.82;95.61;100991.59;5012848;28;20033;-70
2022/04/23 02:09:27;;;;;;;13.63;7.13;;;;;;;8.81;94.97;100983.81;5027728;28;20029;-70
2022/04/23 02:11:52;;;;;;;16.45;7.22;;;;;;;8.81;95.25;100989.09;5024688;28;20489;-70
2022/04/23 02:14:18;;;;;;;17.60;7.97;;;;;;;8.81;95.15;100975.94;5023686;28;20048;-70
2022/04/23 02:16:43;;;;;;;11.88;7.57;;;;;;;8.78;95.43;100973.59;5027917;28;20420;-70
2022/04/23 02:19:08;;;;;;;11.75;7.00;;;;;;;8.61;95.97;100965.34;5008895;28;20453;-70
2022/04/23 02:21:34;;;;;;;14.13;7.18;;;;;;;8.68;96.29;100983.25;5029229;28;20604;-70
2022/04/23 02:24:01;;;;;;;12.27;6.00;;;;;;;8.61;96.56;100973.25;5031412;28;20529;-70
2022/04/23 02:26:27;;;;;;;8.27;6.45;;;;;;;8.57;97.20;100971.84;5031614;28;20032;-70
2022/04/23 02:28:52;;;;;;;11.43;6.93;;;;;;;8.59;96.90;100985.72;5032174;28;20465;-70
2022/04/23 02:31:18;;;;;;;9.35;6.05;;;;;;;8.58;96.63;100988.47;5033375;28;20036;-70
2022/04/23 02:33:46;;;;;;;12.98;6.53;;;;;;;8.61;96.48;100983.78;5031557;28;20023;-70
2022/04/23 02:36:15;;;;;;;10.55;6.72;;;;;;;8.59;96.70;100977.00;5033005;28;20034;-70
2022/04/23 02:38:41;;;;;;;11.02;6.88;;;;;;;8.53;96.88;100980.16;5031952;28;20043;-70
2022/04/23 02:41:10;;;;;;;12.93;6.15;;;;;;;8.51;96.91;100979.44;5027514;28;20037;-70
2022/04/23 02:43:38;;;;;;;18.17;6.97;;;;;;;8.42;97.37;100974.00;5031687;28;20440;-69
2022/04/23 02:46:07;;;;;;;15.15;7.65;;;;;;;8.46;97.23;100985.09;5032316;28;20099;-69
2022/04/23 02:48:33;;;;;;;9.95;6.72;;;;;;;8.39;97.49;100983.94;5031540;28;20025;-70
2022/04/23 02:50:59;;;;;;;10.02;6.97;;;;;;;8.30;97.47;100979.50;5031991;28;20022;-70
2022/04/23 02:53:26;;;;;;;8.85;6.10;;;;;;;8.35;97.86;100983.38;5031652;28;20033;-70
2022/04/23 02:55:56;;;;;;;10.60;6.55;;;;;;;8.33;98.15;100980.03;5030423;28;20041;-70
2022/04/23 02:58:24;;;;;;;9.90;6.85;;;;;;;8.19;98.51;100957.56;5031688;28;20543;-70
2022/04/23 03:00:49;;;;;;;12.60;7.38;;;;;;;8.29;98.57;100972.56;5030730;28;20022;-70
2022/04/23 03:03:15;;;;;;;12.70;7.25;;;;;;;8.28;98.46;100984.06;5028970;28;20040;-70
2022/04/23 03:05:42;;;;;;;12.65;7.28;;;;;;;8.29;98.76;100973.38;5028447;28;20112;-70
2022/04/23 03:08:08;;;;;;;14.32;7.22;;;;;;;8.27;99.00;100982.38;5029830;28;20049;-70
2022/04/23 03:10:33;;;;;;;11.80;7.63;;;;;;;8.31;98.69;100970.63;5029334;28;20041;-70
2022/04/23 03:12:58;;;;;;;14.25;6.63;;;;;;;8.23;98.34;100968.63;5031620;28;20017;-70
2022/04/23 03:15:27;;;;;;;10.52;7.30;;;;;;;8.32;98.42;100981.03;5029712;28;20042;-70
2022/04/23 03:18:10;;;;;;;10.05;7.18;;;;;;;8.35;97.69;100977.28;5030096;28;20026;-70
2022/04/23 03:20:36;;;;;;;12.50;7.40;;;;;;;8.35;97.96;100977.28;5032166;28;20036;-70
2022/04/23 03:23:02;;;;;;;12.95;7.70;;;;;;;8.34;97.43;100980.88;5031645;28;20058;-70
2022/04/23 03:25:27;;;;;;;13.77;7.45;;;;;;;8.32;97.13;100983.66;5029532;28;20076;-70
2022/04/23 03:27:53;;;;;;;10.82;7.30;;;;;;;8.34;96.82;100975.59;5018237;28;20449;-70
2022/04/23 03:30:20;;;;;;;11.77;6.88;;;;;;;8.33;96.72;100976.59;5029099;28;20034;-70
2022/04/23 03:32:46;;;;;;;12.10;7.45;;;;;;;8.30;97.06;100976.88;5027733;28;20078;-69
2022/04/23 03:35:11;;;;;;;11.13;6.43;;;;;;;8.27;96.38;100974.47;5029747;28;20162;-70
2022/04/23 03:37:41;;;;;;;10.80;7.07;;;;;;;8.26;96.06;100972.81;5012319;28;20555;-69
2022/04/23 03:40:08;;;;;;;10.68;7.45;;;;;;;8.28;96.22;100979.63;5017413;28;20033;-70
2022/04/23 03:42:35;;;;;;;13.98;7.95;;;;;;;8.23;95.90;100973.91;5030919;28;20047;-70
2022/04/23 03:45:01;;;;;;;12.68;7.55;;;;;;;8.27;96.26;100975.31;5029513;28;20021;-69
2022/04/23 03:47:26;;;;;;;14.13;7.75;;;;;;;8.27;95.75;100983.19;5016522;28;20113;-69
2022/04/23 03:49:51;;;;;;;10.95;7.25;;;;;;;8.24;96.05;100981.66;5021490;28;20120;-69
2022/04/23 03:52:17;;;;;;;9.00;6.53;;;;;;;8.11;95.72;100965.28;5029506;28;20025;-69
2022/04/23 03:54:42;;;;;;;11.18;6.85;;;;;;;8.21;95.65;100981.94;5008647;28;20029;-69
2022/04/23 03:57:07;;;;;;;11.35;7.50;;;;;;;8.15;95.64;100986.88;5020110;28;20040;-69
2022/04/23 03:59:35;;;;;;;14.45;7.00;;;;;;;8.05;95.94;100976.31;5012999;28;20120;-69
2022/04/23 04:02:04;;;;;;;13.68;8.07;;;;;;;8.08;95.38;100997.09;5028321;28;20470;-69
2022/04/23 04:04:31;;;;;;;13.35;7.07;;;;;;;7.93;95.46;100982.63;5027363;28;20045;-69
2022/04/23 04:06:56;;;;;;;13.00;6.53;;;;;;;7.82;95.93;100971.22;5008584;28;20037;-69
2022/04/23 04:09:22;;;;;;;11.15;7.03;;;;;;;7.90;95.92;100983.69;5011984;28;20033;-69
2022/04/23 04:12:02;;;;;;;11.10;6.68;;;;;;;7.94;95.52;100994.78;5029632;28;20040;-69
2022/04/23 04:14:32;;;;;;;10.52;7.47;;;;;;;7.95;94.93;100993.84;5026359;28;20061;-69
2022/04/23 04:17:00;;;;;;;13.43;7.43;;;;;;;7.91;95.32;100989.81;5027148;28;20425;-69
2022/04/23 04:19:30;;;;;;;11.65;7.68;;;;;;;7.86;95.20;100991.97;5028783;28;20017;-69
2022/04/23 04:21:57;;;;;;;12.98;7.32;;;;;;;7.87;95.16;100983.13;5030728;28;20156;-69
2022/04/23 04:24:23;;;;;;;12.63;7.47;;;;;;;7.85;95.45;100985.06;5026901;28;20057;-69
2022/04/23 04:26:49;;;;;;;11.27;7.82;;;;;;;7.74;95.24;100978.06;5030159;28;20440;-69
2022/04/23 04:29:14;;;;;;;12.07;7.03;;;;;;;7.66;95.12;100965.56;5021237;28;20493;-69
2022/04/23 04:31:49;;;;;;;9.20;6.72;;;;;;;7.72;95.78;100980.81;5028923;28;20018;-69
2022/04/23 04:34:23;;;;;;;11.50;7.53;;;;;;;7.78;95.30;100984.75;5030648;28;20417;-69
2022/04/23 04:36:50;;;;;;;14.50;7.72;;;;;;;7.75;95.23;100993.72;5027562;28;20168;-69
2022/04/23 04:39:17;;;;;;;9.90;6.80;;;;;;;7.72;95.40;100980.81;5028620;28;20037;-69
2022/04/23 04:41:42;;;;;;;9.07;6.93;;;;;;;7.77;95.00;100983.06;5024898;28;20048;-69
2022/04/23 04:44:08;;;;;;;9.30;6.53;;;;;;;7.76;94.84;100992.75;5026137;28;20026;-68
2022/04/23 04:46:35;;;;;;;10.40;6.88;;;;;;;7.71;94.73;100994.94;5026824;28;20032;-68
2022/04/23 04:49:01;;;;;;;10.13;7.50;;;;;;;7.66;94.42;100973.44;5028713;28;20148;-69
2022/04/23 04:51:27;;;;;;;10.10;6.32;;;;;;;7.66;95.02;100977.88;5023944;28;20030;-69
2022/04/23 04:53:53;;;;;;;10.70;7.10;;;;;;;7.72;94.73;100988.69;5019376;28;20025;-69
2022/04/23 04:56:18;;;;;;;8.50;6.95;;;;;;;7.74;94.58;100984.16;5025613;28;20037;-69
2022/04/23 04:58:45;;;;;;;9.10;6.68;;;;;;;7.65;93.90;100978.84;5012560;28;20029;-69
2022/04/23 05:01:10;;;;;;;10.73;7.30;;;;;;;7.62;94.46;100985.16;5007639;28;20041;-69
2022/04/23 05:03:36;;;;;;;12.55;6.70;;;;;;;7.73;93.85;100993.00;5018539;28;20036;-69
2022/04/23 05:06:02;;;;;;;8.25;5.00;;;;;;;7.63;93.71;100965.84;5028778;28;20033;-69
2022/04/23 05:08:27;;;;;;;8.55;6.28;;;;;;;7.71;93.41;100988.81;5028756;28;20033;-69
2022/04/23 05:10:53;;;;;;;11.65;7.28;;;;;;;7.86;93.50;101005.09;5028310;28;20040;-69
2022/04/23 05:13:18;;;;;;;9.98;6.88;;;;;;;7.83;93.03;101004.41;5027963;28;20528;-69
2022/04/23 05:15:44;;;;;;;12.35;7.22;;;;;;;7.92;92.52;101017.72;5024756;28;20124;-69
2022/04/23 05:18:10;;;;;;;10.50;6.40;;;;;;;7.89;92.84;101012.75;5027011;28;20111;-69
2022/04/23 05:20:36;;;;;;;9.75;6.65;;;;;;;7.87;92.52;101015.50;5028212;28;20120;-69
2022/04/23 05:23:01;;;;;;;10.68;6.68;;;;;;;7.95;92.41;101012.25;5030406;28;20029;-69
2022/04/23 05:25:27;;;;;;;9.00;6.38;;;;;;;7.95;92.11;101006.97;5024459;28;20148;-69
2022/04/23 05:27:52;;;;;;;11.38;6.88;;;;;;;7.95;91.91;100999.09;5027415;28;20045;-69
2022/04/23 05:30:18;;;;;;;8.82;5.80;;;;;;;8.02;91.26;101023.91;5019972;28;20581;-69
2022/04/23 05:32:43;;;;;;;10.10;6.43;;;;;;;8.06;91.51;101020.03;5026373;28;20028;-69
2022/04/23 05:35:09;;;;;;;9.43;6.68;;;;;;;8.06;91.33;101019.19;5024287;28;20343;-69
2022/04/23 05:37:34;;;;;;;10.18;6.45;;;;;;;7.98;90.79;100994.41;4999996;28;20787;-69
2022/04/23 05:39:59;;;;;;;8.85;6.70;;;;;;;8.06;90.98;100998.16;5018130;28;20087;-69
2022/04/23 05:42:25;;;;;;;8.93;5.85;;;;;;;8.16;90.47;101020.91;5016347;28;20026;-68
2022/04/23 05:44:50;;;;;;;10.52;6.32;;;;;;;8.24;90.27;101018.47;5025326;28;20033;-68
2022/04/23 05:47:15;;;;;;;10.68;7.20;;;;;;;8.14;90.07;101012.31;5023673;28;20567;-68
2022/04/23 05:49:41;;;;;;;11.00;6.40;;;;;;;8.23;89.33;101008.94;5024347;28;20529;-69
2022/04/23 05:52:07;;;;;;;9.43;6.93;;;;;;;8.38;89.42;101022.56;5019337;28;20497;-68
2022/04/23 05:54:32;;;;;;;10.95;6.82;;;;;;;8.38;88.89;101021.72;5018971;28;20038;-68
2022/04/23 05:56:57;;;;;;;8.43;6.53;;;;;;;8.44;88.58;101018.59;5030476;28;20559;-68
2022/04/23 05:59:28;;;;;;;11.45;7.72;;;;;;;8.52;88.00;101026.66;5032039;28;20045;-68
2022/04/23 06:01:54;;;;;;;;;;;;;;;8.57;87.74;101024.47;5030982;28;20505;-68
2022/04/23 06:04:19;;;;;;;9.40;5.80;;;;;;;8.61;87.48;101028.50;5030367;28;19913;-68
2022/04/23 06:06:44;;;;;;;8.10;6.28;;;;;;;8.60;87.28;101040.00;5026399;28;20029;-68
2022/04/23 06:09:10;;;;;;;8.82;6.00;;;;;;;8.60;87.04;101011.06;5029159;28;20044;-68
2022/04/23 06:11:35;;;;;;;9.02;6.65;;;;;;;8.87;86.84;101029.84;5025068;28;20053;-68
2022/04/23 06:14:01;;;;;;;10.05;6.72;;;;;;;8.89;85.65;101033.19;5030652;28;20033;-68
2022/04/23 06:16:26;;;;;;;11.88;7.00;;;;;;;8.99;85.23;101039.28;5010360;28;20064;-68
2022/04/23 06:18:51;;;;;;;11.32;6.97;;;;;;;9.09;85.97;101028.78;5033261;28;20311;-68
2022/04/23 06:21:17;;;;;;;9.55;7.43;;;;;;;9.15;85.25;101034.34;5031260;28;20033;-68
2022/04/23 06:23:43;;;;;;;11.38;7.35;;;;;;;9.25;84.55;101034.34;5024563;28;20617;-68
2022/04/23 06:26:08;;;;;;;11.40;7.43;;;;;;;9.31;85.01;101031.16;5018926;28;20041;-68
2022/04/23 06:28:33;;;;;;;11.15;6.97;;;;;;;9.39;84.34;101057.66;5030145;28;20571;-68
2022/04/23 06:30:59;;;;;;;12.13;7.30;;;;;;;9.44;83.47;101042.25;5026056;28;20060;-68
2022/04/23 06:33:24;;;;;;;10.45;7.15;;;;;;;9.54;83.12;101041.44;5029226;28;20052;-68
2022/04/23 06:35:49;;;;;;;15.43;7.65;;;;;;;9.61;82.86;101032.00;5027643;28;20041;-68
2022/04/23 06:38:15;;;;;;;9.73;6.65;;;;;;;9.74;82.39;101055.47;5023868;28;20036;-69
2022/04/23 06:40:41;;;;;;;10.88;7.95;;;;;;;9.80;81.94;101042.56;5029797;28;20037;-69
2022/04/23 06:43:07;;;;;;;8.05;6.32;;;;;;;9.93;80.24;101051.94;5028261;28;20030;-67
2022/04/23 06:45:32;;;;;;;10.30;6.68;;;;;;;9.91;80.75;101035.44;5028328;28;20654;-68
2022/04/23 06:48:04;;;;;;;9.38;7.25;;;;;;;10.22;80.90;101047.47;5028130;28;20125;-68
2022/04/23 06:50:33;;;;;;;8.73;6.30;;;;;;;10.27;78.62;101055.78;5027510;28;20040;-68
2022/04/23 06:52:59;;;;;;;9.32;7.47;;;;;;;10.48;78.18;101057.44;5023780;28;20502;-68
2022/04/23 06:55:25;;;;;;;13.00;7.70;;;;;;;10.86;77.35;101050.31;5028781;28;20044;-68
2022/04/23 06:57:51;;;;;;;11.40;6.78;;;;;;;11.34;75.20;101070.31;5029021;28;20189;-68
2022/04/23 07:00:16;;;;;;;12.85;7.13;;;;;;;11.72;74.16;101056.00;5027307;28;20041;-69
2022/04/23 07:02:42;;;;;;;9.85;6.93;;;;;;;11.86;71.88;101065.19;5026439;28;20060;-69
2022/04/23 07:05:08;;;;;;;9.57;7.28;;;;;;;11.87;69.76;101052.81;5027694;28;20049;-69
2022/04/23 07:07:33;;;;;;;9.48;6.75;;;;;;;12.27;69.18;101060.22;5029003;28;20029;-69
2022/04/23 07:09:59;;;;;;;7.95;6.38;;;;;;;12.26;68.57;101061.22;5029162;28;20047;-70
2022/04/23 07:12:25;;;;;;;13.23;6.57;;;;;;;12.19;68.48;101048.75;5025757;28;20155;-69
2022/04/23 07:14:51;;;;;;;9.50;6.70;;;;;;;12.03;69.28;101046.84;5026970;28;20026;-69
2022/04/23 07:17:23;;;;;;;8.95;6.03;;;;;;;12.00;68.20;101057.72;5028035;28;20429;-69
2022/04/23 07:19:48;;;;;;;8.23;6.72;;;;;;;12.48;67.55;101040.50;5028870;28;20035;-69
2022/04/23 07:22:13;;;;;;;11.77;6.95;;;;;;;12.67;67.52;101048.22;5027164;28;20038;-69
2022/04/23 07:24:39;;;;;;;12.10;6.70;;;;;;;12.65;66.13;101062.56;5028798;28;20080;-69
2022/04/23 07:27:05;;;;;;;11.05;6.63;;;;;;;12.52;66.01;101063.00;5010852;28;20037;-69
2022/04/23 07:29:30;;;;;;;9.40;6.10;;;;;;;12.62;66.70;101052.31;5028791;28;20107;-69
2022/04/23 07:31:57;;;;;;;13.82;7.03;;;;;;;12.45;67.31;101052.22;5025178;28;20030;-69
2022/04/23 07:39:51;;;;;;;8.40;6.20;;;;;;;13.21;65.46;101041.75;5028606;28;20045;-69
2022/04/23 07:42:16;;;;;;;10.77;7.18;;;;;;;13.26;65.18;101044.72;5027556;28;20034;-68
2022/04/23 07:44:42;;;;;;;31.10;8.68;;;;;;;13.33;63.73;101040.50;5027810;28;20029;-68
2022/04/23 07:47:07;;;;;;;8.70;5.93;;;;;;;13.07;63.38;101036.09;5029850;28;20040;-68
2022/04/23 07:49:33;;;;;;;8.90;6.30;;;;;;;13.10;64.04;101043.72;5027156;28;20021;-68
2022/04/23 07:51:58;;;;;;;8.20;6.47;;;;;;;13.62;63.85;101012.66;5027890;28;20024;-68
2022/04/23 07:54:24;;;;;;;9.43;7.05;;;;;;;14.03;62.64;101028.56;5020164;28;20638;-68
2022/04/23 07:56:49;;;;;;;10.25;7.18;;;;;;;13.57;63.30;101037.03;5020109;28;20033;-68
2022/04/23 07:59:15;;;;;;;12.20;6.80;;;;;;;13.79;63.43;101032.91;5027039;28;20397;-68
2022/04/23 08:01:40;;;;;;;8.90;6.53;;;;;;;13.48;61.67;101024.75;5017307;28;20037;-68
2022/04/23 08:04:06;;;;;;;7.28;6.07;;;;;;;13.84;62.24;101027.09;5027058;28;20034;-68
2022/04/23 08:06:32;;;;;;;7.75;6.95;;;;;;;13.63;62.19;101004.56;5025432;28;20126;-68
2022/04/23 08:08:59;;;;;;;9.25;6.47;;;;;;;13.71;61.71;101016.97;5025423;28;20450;-68
2022/04/23 08:11:25;;;;;;;9.95;7.40;;;;;;;14.49;60.16;101024.28;5026753;28;20234;-70
2022/04/23 08:13:51;;;;;;;7.85;6.75;;;;;;;14.48;59.83;101019.16;5027252;28;20033;-69
2022/04/23 08:16:16;;;;;;;12.40;7.38;;;;;;;14.56;59.47;101000.56;5025101;28;20107;-69
2022/04/23 08:18:42;;;;;;;10.48;7.13;;;;;;;14.36;59.42;101021.34;5027853;28;20541;-69
2022/04/23 08:21:08;;;;;;;7.70;6.82;;;;;;;14.59;59.01;101027.63;5028202;28;20022;-69
2022/04/23 08:23:34;;;;;;;10.27;6.95;;;;;;;14.43;58.54;101035.59;5023595;28;20045;-69
2022/04/23 08:26:05;;;;;;;7.45;6.70;;;;;;;14.28;58.16;101003.59;5025325;28;20048;-69
2022/04/23 08:31:15;;;;;;;9.38;7.65;;;;;;;14.15;59.03;101021.91;5025028;28;20090;-69
2022/04/23 08:33:58;;;;;;;7.75;6.88;;;;;;;14.31;58.99;101016.56;5025863;28;20533;-69
2022/04/23 08:36:26;;;;;;;9.15;6.63;;;;;;;14.83;58.79;100991.31;5025567;28;20481;-69
2022/04/23 08:38:53;;;;;;;7.57;5.70;;;;;;;15.25;57.57;100992.72;5018277;28;20037;-69
2022/04/23 08:41:19;;;;;;;8.00;6.85;;;;;;;15.61;57.73;101008.91;5026337;28;20052;-69
2022/04/23 08:43:45;;;;;;;12.15;6.85;;;;;;;15.24;56.06;100983.06;5027341;28;20038;-69
2022/04/23 08:46:12;;;;;;;12.20;7.63;;;;;;;14.94;55.78;100982.13;5017844;28;20025;-69
2022/04/23 08:48:38;;;;;;;7.85;6.85;;;;;;;15.03;55.79;100983.72;5026987;28;20049;-69
2022/04/23 08:51:11;;;;;;;7.90;6.63;;;;;;;14.75;56.28;100997.50;5025395;28;20720;-70
2022/04/23 08:53:40;;;;;;;9.57;7.32;;;;;;;15.29;56.63;100987.88;5024667;28;20025;-69
2022/04/23 08:56:08;;;;;;;8.68;7.18;;;;;;;15.11;55.57;100994.31;5023761;28;20113;-69
2022/04/23 08:58:33;;;;;;;10.40;7.43;;;;;;;14.98;54.91;100994.03;5021778;28;20025;-69
2022/04/23 09:00:58;;;;;;;8.02;6.78;;;;;;;14.97;55.07;100992.41;5025417;28;20401;-71
2022/04/23 09:03:24;;;;;;;8.90;6.28;;;;;;;14.63;55.57;100990.06;5026667;28;20072;-69
2022/04/23 09:05:53;;;;;;;7.25;6.50;;;;;;;15.23;55.45;101008.00;5027027;28;20029;-69
2022/04/23 09:08:19;;;;;;;8.55;7.35;;;;;;;15.35;54.29;101005.75;5027131;28;20052;-70
2022/04/23 09:10:54;;;;;;;11.70;6.60;;;;;;;14.57;56.50;101008.38;5027866;28;20060;-70
2022/04/23 09:13:32;;;;;;;8.93;6.70;;;;;;;15.70;55.43;101003.47;5027280;28;20030;-69
2022/04/23 09:24:47;;;;;;;10.77;7.70;;;;;;;15.22;55.78;100993.03;5027379;28;20577;-68
2022/04/23 09:27:12;;;;;;;7.38;6.57;;;;;;;15.92;54.58;100994.69;5026856;28;20109;-68
2022/04/23 09:29:39;;;;;;;9.18;7.05;;;;;;;15.54;54.52;100993.81;5026158;28;20060;-68
2022/04/23 09:32:14;;;;;;;7.82;6.47;;;;;;;15.76;54.92;100992.16;5028294;28;20033;-68
2022/04/23 09:34:40;;;;;;;9.77;6.07;;;;;;;15.93;53.20;100991.00;5027174;28;20124;-68
2022/04/23 09:37:08;;;;;;;12.07;7.10;;;;;;;15.96;54.94;100982.66;5024423;28;20094;-68
2022/04/23 09:39:36;;;;;;;7.78;6.57;;;;;;;16.28;53.51;100980.63;5026112;28;20025;-71
2022/04/23 09:42:19;;;;;;;16.38;7.47;;;;;;;15.59;54.14;100989.63;5026822;28;20102;-69
2022/04/23 09:44:47;;;;;;;7.15;6.43;;;;;;;15.63;54.41;100964.31;5024945;28;20477;-69
2022/04/23 09:47:31;;;;;;;12.57;6.72;;;;;;;17.05;53.17;100976.69;5023480;28;20400;-69
2022/04/23 09:49:57;;;;;;;8.80;6.60;;;;;;;17.05;51.68;100963.34;5021181;28;20517;-70
2022/04/23 09:52:28;;;;;;;7.65;6.18;;;;;;;16.88;51.30;100977.94;5028699;28;20082;-70
2022/04/23 09:54:59;;;;;;;6.97;5.85;;;;;;;16.28;50.88;100972.66;5026861;28;20041;-69
2022/04/23 09:57:25;;;;;;;;;;;;;;;16.43;52.30;100973.47;5033756;28;20038;-68
2022/04/23 09:59:54;;;;;;;6.93;6.22;;;;;;;16.38;51.50;100997.19;5026104;28;20432;-69
2022/04/23 10:02:19;;;;;;;8.43;5.90;;;;;;;16.00;51.15;100964.47;5027650;28;20148;-69
2022/04/23 10:04:46;;;;;;;12.82;6.00;;;;;;;16.10;50.23;100973.03;5022766;28;20121;-69
2022/04/23 10:07:13;;;;;;;6.75;5.50;;;;;;;16.65;49.16;100949.53;5023846;28;20033;-69
2022/04/23 10:09:41;;;;;;;5.95;4.95;;;;;;;15.90;50.48;100951.44;5023377;28;20469;-69
2022/04/23 10:12:08;;;;;;;8.23;5.28;;;;;;;15.41;50.73;100973.97;5020290;28;20033;-68
2022/04/23 10:14:41;;;;;;;7.72;5.60;;;;;;;15.36;51.26;100991.47;5027389;28;20112;-69
2022/04/23 10:17:10;;;;;;;9.40;6.00;;;;;;;15.69;50.48;100960.09;5020479;28;20382;-68
2022/04/23 10:19:36;;;;;;;10.07;6.00;;;;;;;16.22;49.85;100944.09;5024523;28;20656;-68
2022/04/23 10:22:14;;;;;;;9.52;5.82;;;;;;;16.43;50.41;100969.97;5023060;28;20029;-70
2022/04/23 10:24:59;;;;;;;15.60;5.95;;;;;;;16.06;49.61;100960.25;5020838;28;20051;-69
2022/04/23 10:27:28;;;;;;;10.40;5.43;;;;;;;17.12;49.03;100937.56;5021565;28;20079;-69
2022/04/23 10:30:02;;;;;;;9.52;5.88;;;;;;;17.33;48.93;100939.38;5020786;28;20021;-69
2022/04/23 10:32:39;;;;;;;6.03;4.95;;;;;;;17.25;48.08;100937.69;5023900;28;20024;-70
2022/04/23 10:35:17;;;;;;;7.38;5.05;;;;;;;16.51;47.71;100953.09;5019358;28;20048;-70
2022/04/23 10:37:42;;;;;;;6.72;6.03;;;;;;;16.52;47.99;100936.06;5022584;28;20025;-70
2022/04/23 10:40:10;;;;;;;6.80;5.07;;;;;;;16.20;48.27;100936.31;5026286;28;20462;-69
2022/04/23 10:42:38;;;;;;;7.18;5.70;;;;;;;16.20;49.10;100946.09;5028195;28;20111;-69
2022/04/23 10:45:05;;;;;;;6.40;4.32;;;;;;;16.45;47.92;100955.47;5023964;28;20026;-69
2022/04/23 10:47:34;;;;;;;5.97;4.90;;;;;;;16.53;47.58;100961.72;5031326;28;20103;-69
2022/04/23 10:50:16;;;;;;;5.10;4.60;;;;;;;16.25;46.84;100954.38;5028301;28;20540;-69
2022/04/23 10:52:42;;;;;;;8.30;4.57;;;;;;;16.45;47.29;100951.97;5031625;28;20135;-69
2022/04/23 10:55:09;;;;;;;5.28;4.45;;;;;;;16.67;47.94;100947.53;5030721;28;20040;-69
2022/04/23 10:57:40;;;;;;;5.32;4.82;;;;;;;16.56;47.21;100948.81;5031584;28;20030;-70
2022/04/23 11:00:10;;;;;;;8.00;4.50;;;;;;;16.80;47.72;100930.88;5027770;28;20059;-69
2022/04/23 11:02:35;;;;;;;6.40;3.88;;;;;;;17.08;46.01;100920.31;5032869;28;20095;-69
2022/04/23 11:13:48;;;;;;;5.18;4.53;;;;;;;16.90;45.84;100941.22;5026544;28;20255;-69
2022/04/23 11:16:18;;;;;;;6.82;4.43;;;;;;;17.02;45.62;100945.06;5025896;28;20030;-69
2022/04/23 11:18:46;;;;;;;8.53;4.40;;;;;;;16.79;46.66;100914.03;5029256;28;20123;-69
2022/04/23 11:21:26;;;;;;;6.82;4.15;;;;;;;17.56;45.21;100933.84;5026145;28;20116;-69
2022/04/23 11:23:54;;;;;;;6.28;4.35;;;;;;;18.86;42.50;100928.78;5022433;28;20409;-69
2022/04/23 11:26:44;;;;;;;4.75;3.95;;;;;;;18.22;43.72;100928.09;5026376;28;20065;-69
2022/04/23 11:29:10;;;;;;;4.57;4.18;;;;;;;18.47;44.76;100924.94;5023479;28;20084;-69
2022/04/23 11:31:35;;;;;;;13.02;4.32;;;;;;;16.62;47.12;100910.78;5027972;28;20496;-69
2022/04/23 11:34:02;;;;;;;6.70;4.05;;;;;;;17.66;45.40;100923.66;5026879;28;20022;-70
2022/04/23 11:36:35;;;;;;;6.60;4.15;;;;;;;16.88;44.59;100945.94;5026755;28;20462;-69
2022/04/23 11:39:09;;;;;;;3.90;3.50;;;;;;;17.45;45.40;100927.19;5029351;28;20473;-69
2022/04/23 11:41:39;;;;;;;7.93;3.90;;;;;;;16.77;45.77;100925.91;5039459;28;20353;-69
2022/04/23 11:44:18;;;;;;;4.65;3.90;;;;;;;17.22;45.16;100938.09;5027563;28;20017;-68
2022/04/23 11:46:50;;;;;;;4.43;3.75;;;;;;;17.52;44.48;100921.88;5019061;28;20033;-68
2022/04/23 11:49:26;;;;;;;5.05;3.70;;;;;;;17.17;45.63;100921.00;5026730;28;20014;-69
2022/04/23 11:52:02;;;;;;;4.00;3.60;;;;;;;17.75;44.54;100910.97;5026776;28;20030;-69